sensor_id;sensor_type;location;lat;lon;timestamp;P1;durP1;ratioP1;P2;durP2;ratioP2
66523;SDS011;53350;52.210;5.160;2022-12-18T00:01:43;58.55;;;23.95;;
66523;SDS011;53350;52.210;5.160;2022-12-18T00:04:14;61.30;;;24.45;;
66523;SDS011;53350;52.210;5.160;2022-12-18T00:06:45;54.63;;;23.92;;
66523;SDS011;53350;52.210;5.160;2022-12-18T00:09:11;57.15;;;24.80;;
66523;SDS011;53350;52.210;5.160;2022-12-18T00:11:38;55.58;;;24.15;;
66523;SDS011;53350;52.210;5.160;2022-12-18T00:14:04;39.05;;;17.10;;
66523;SDS011;53350;52.210;5.160;2022-12-18T00:16:31;52.63;;;22.27;;
66523;SDS011;53350;52.210;5.160;2022-12-18T00:19:00;58.63;;;23.38;;
66523;SDS011;53350;52.210;5.160;2022-12-18T00:21:27;48.60;;;21.75;;
66523;SDS011;53350;52.210;5.160;2022-12-18T00:23:55;56.13;;;22.50;;
66523;SDS011;53350;52.210;5.160;2022-12-18T00:26:23;51.40;;;23.75;;
66523;SDS011;53350;52.210;5.160;2022-12-18T00:31:19;53.55;;;23.02;;
66523;SDS011;53350;52.210;5.160;2022-12-18T00:33:46;53.40;;;22.75;;
66523;SDS011;53350;52.210;5.160;2022-12-18T00:36:14;51.25;;;21.83;;
66523;SDS011;53350;52.210;5.160;2022-12-18T00:41:10;47.63;;;20.88;;
66523;SDS011;53350;52.210;5.160;2022-12-18T00:43:38;55.83;;;21.48;;
66523;SDS011;53350;52.210;5.160;2022-12-18T00:46:04;51.53;;;20.83;;
66523;SDS011;53350;52.210;5.160;2022-12-18T00:48:31;49.75;;;21.67;;
66523;SDS011;53350;52.210;5.160;2022-12-18T00:50:58;53.45;;;22.92;;
66523;SDS011;53350;52.210;5.160;2022-12-18T00:53:24;47.83;;;21.58;;
66523;SDS011;53350;52.210;5.160;2022-12-18T00:55:50;54.25;;;24.50;;
66523;SDS011;53350;52.210;5.160;2022-12-18T00:58:18;48.85;;;21.52;;
66523;SDS011;53350;52.210;5.160;2022-12-18T01:00:44;50.97;;;21.23;;
66523;SDS011;53350;52.210;5.160;2022-12-18T01:03:12;57.58;;;23.27;;
66523;SDS011;53350;52.210;5.160;2022-12-18T01:05:39;52.97;;;22.52;;
66523;SDS011;53350;52.210;5.160;2022-12-18T01:08:06;52.45;;;22.50;;
66523;SDS011;53350;52.210;5.160;2022-12-18T01:10:33;58.17;;;22.48;;
66523;SDS011;53350;52.210;5.160;2022-12-18T01:12:59;48.85;;;23.02;;
66523;SDS011;53350;52.210;5.160;2022-12-18T01:15:27;50.00;;;22.55;;
66523;SDS011;53350;52.210;5.160;2022-12-18T01:17:53;52.47;;;23.40;;
66523;SDS011;53350;52.210;5.160;2022-12-18T01:20:20;49.53;;;22.08;;
66523;SDS011;53350;52.210;5.160;2022-12-18T01:22:46;48.33;;;21.83;;
66523;SDS011;53350;52.210;5.160;2022-12-18T01:25:12;51.10;;;22.30;;
66523;SDS011;53350;52.210;5.160;2022-12-18T01:27:39;49.97;;;22.42;;
66523;SDS011;53350;52.210;5.160;2022-12-18T01:30:06;47.47;;;22.20;;
66523;SDS011;53350;52.210;5.160;2022-12-18T01:32:34;55.97;;;23.67;;
66523;SDS011;53350;52.210;5.160;2022-12-18T01:35:01;45.23;;;23.23;;
66523;SDS011;53350;52.210;5.160;2022-12-18T01:37:27;45.38;;;19.95;;
66523;SDS011;53350;52.210;5.160;2022-12-18T01:39:54;48.70;;;21.17;;
66523;SDS011;53350;52.210;5.160;2022-12-18T01:42:20;47.15;;;21.77;;
66523;SDS011;53350;52.210;5.160;2022-12-18T01:44:53;51.25;;;22.85;;
66523;SDS011;53350;52.210;5.160;2022-12-18T01:47:23;46.78;;;22.45;;
66523;SDS011;53350;52.210;5.160;2022-12-18T01:49:56;48.63;;;21.45;;
66523;SDS011;53350;52.210;5.160;2022-12-18T01:52:25;47.75;;;20.70;;
66523;SDS011;53350;52.210;5.160;2022-12-18T01:54:54;50.42;;;21.92;;
66523;SDS011;53350;52.210;5.160;2022-12-18T01:57:22;46.92;;;21.52;;
66523;SDS011;53350;52.210;5.160;2022-12-18T01:59:50;48.70;;;21.50;;
66523;SDS011;53350;52.210;5.160;2022-12-18T02:02:19;51.70;;;22.92;;
66523;SDS011;53350;52.210;5.160;2022-12-18T02:04:46;46.65;;;20.55;;
66523;SDS011;53350;52.210;5.160;2022-12-18T02:07:14;49.20;;;21.30;;
66523;SDS011;53350;52.210;5.160;2022-12-18T02:09:47;44.58;;;20.65;;
66523;SDS011;53350;52.210;5.160;2022-12-18T02:12:17;48.13;;;22.42;;
66523;SDS011;53350;52.210;5.160;2022-12-18T02:14:48;54.58;;;24.88;;
66523;SDS011;53350;52.210;5.160;2022-12-18T02:17:18;50.40;;;20.92;;
66523;SDS011;53350;52.210;5.160;2022-12-18T02:19:50;51.20;;;21.15;;
66523;SDS011;53350;52.210;5.160;2022-12-18T02:22:33;56.30;;;23.52;;
66523;SDS011;53350;52.210;5.160;2022-12-18T02:25:15;52.03;;;23.55;;
66523;SDS011;53350;52.210;5.160;2022-12-18T02:27:51;52.08;;;23.23;;
66523;SDS011;53350;52.210;5.160;2022-12-18T02:30:20;51.08;;;22.80;;
66523;SDS011;53350;52.210;5.160;2022-12-18T02:32:48;49.57;;;21.30;;
66523;SDS011;53350;52.210;5.160;2022-12-18T02:35:19;58.42;;;23.63;;
66523;SDS011;53350;52.210;5.160;2022-12-18T02:37:48;50.92;;;22.27;;
66523;SDS011;53350;52.210;5.160;2022-12-18T02:40:20;45.97;;;20.30;;
66523;SDS011;53350;52.210;5.160;2022-12-18T02:42:49;50.28;;;23.38;;
66523;SDS011;53350;52.210;5.160;2022-12-18T02:45:17;47.70;;;19.48;;
66523;SDS011;53350;52.210;5.160;2022-12-18T02:47:46;52.25;;;20.92;;
66523;SDS011;53350;52.210;5.160;2022-12-18T02:50:16;53.40;;;23.70;;
66523;SDS011;53350;52.210;5.160;2022-12-18T02:52:50;51.47;;;21.92;;
66523;SDS011;53350;52.210;5.160;2022-12-18T02:55:24;50.42;;;18.75;;
66523;SDS011;53350;52.210;5.160;2022-12-18T02:58:01;57.45;;;24.23;;
66523;SDS011;53350;52.210;5.160;2022-12-18T03:00:35;51.88;;;21.35;;
66523;SDS011;53350;52.210;5.160;2022-12-18T03:03:06;49.17;;;20.67;;
66523;SDS011;53350;52.210;5.160;2022-12-18T03:05:37;55.40;;;23.58;;
66523;SDS011;53350;52.210;5.160;2022-12-18T03:08:07;50.85;;;22.27;;
66523;SDS011;53350;52.210;5.160;2022-12-18T03:10:38;53.58;;;22.60;;
66523;SDS011;53350;52.210;5.160;2022-12-18T03:13:11;51.75;;;22.42;;
66523;SDS011;53350;52.210;5.160;2022-12-18T03:15:45;48.60;;;22.20;;
66523;SDS011;53350;52.210;5.160;2022-12-18T03:18:14;50.58;;;22.02;;
66523;SDS011;53350;52.210;5.160;2022-12-18T03:20:44;46.25;;;22.08;;
66523;SDS011;53350;52.210;5.160;2022-12-18T03:23:15;49.10;;;21.98;;
66523;SDS011;53350;52.210;5.160;2022-12-18T03:25:45;47.45;;;20.38;;
66523;SDS011;53350;52.210;5.160;2022-12-18T03:28:14;48.38;;;22.77;;
66523;SDS011;53350;52.210;5.160;2022-12-18T03:30:46;51.60;;;21.40;;
66523;SDS011;53350;52.210;5.160;2022-12-18T03:33:16;47.00;;;20.83;;
66523;SDS011;53350;52.210;5.160;2022-12-18T03:35:47;48.70;;;20.35;;
66523;SDS011;53350;52.210;5.160;2022-12-18T03:38:13;45.05;;;19.58;;
66523;SDS011;53350;52.210;5.160;2022-12-18T03:40:43;50.78;;;22.08;;
66523;SDS011;53350;52.210;5.160;2022-12-18T03:43:18;49.17;;;22.42;;
66523;SDS011;53350;52.210;5.160;2022-12-18T03:45:54;47.05;;;20.60;;
66523;SDS011;53350;52.210;5.160;2022-12-18T03:48:29;46.53;;;20.35;;
66523;SDS011;53350;52.210;5.160;2022-12-18T03:51:04;46.70;;;19.90;;
66523;SDS011;53350;52.210;5.160;2022-12-18T03:53:36;50.90;;;21.90;;
66523;SDS011;53350;52.210;5.160;2022-12-18T03:56:08;42.30;;;21.15;;
66523;SDS011;53350;52.210;5.160;2022-12-18T03:58:35;45.28;;;20.92;;
66523;SDS011;53350;52.210;5.160;2022-12-18T04:01:06;44.65;;;20.35;;
66523;SDS011;53350;52.210;5.160;2022-12-18T04:03:36;50.28;;;21.63;;
66523;SDS011;53350;52.210;5.160;2022-12-18T04:06:04;47.08;;;21.00;;
66523;SDS011;53350;52.210;5.160;2022-12-18T04:08:32;48.30;;;21.10;;
66523;SDS011;53350;52.210;5.160;2022-12-18T04:10:59;46.20;;;19.67;;
66523;SDS011;53350;52.210;5.160;2022-12-18T04:13:27;42.58;;;19.33;;
66523;SDS011;53350;52.210;5.160;2022-12-18T04:15:55;47.25;;;21.52;;
66523;SDS011;53350;52.210;5.160;2022-12-18T04:18:23;45.75;;;20.00;;
66523;SDS011;53350;52.210;5.160;2022-12-18T04:20:49;46.92;;;20.38;;
66523;SDS011;53350;52.210;5.160;2022-12-18T04:23:16;41.15;;;20.50;;
66523;SDS011;53350;52.210;5.160;2022-12-18T04:25:42;43.47;;;20.67;;
66523;SDS011;53350;52.210;5.160;2022-12-18T04:28:09;43.33;;;19.92;;
66523;SDS011;53350;52.210;5.160;2022-12-18T04:30:35;42.38;;;18.98;;
66523;SDS011;53350;52.210;5.160;2022-12-18T04:33:01;38.45;;;18.50;;
66523;SDS011;53350;52.210;5.160;2022-12-18T04:35:29;41.85;;;19.13;;
66523;SDS011;53350;52.210;5.160;2022-12-18T04:37:56;41.17;;;19.77;;
66523;SDS011;53350;52.210;5.160;2022-12-18T04:40:22;46.30;;;20.55;;
66523;SDS011;53350;52.210;5.160;2022-12-18T04:42:48;40.75;;;18.65;;
66523;SDS011;53350;52.210;5.160;2022-12-18T04:45:15;39.20;;;18.55;;
66523;SDS011;53350;52.210;5.160;2022-12-18T04:47:41;38.97;;;18.75;;
66523;SDS011;53350;52.210;5.160;2022-12-18T04:50:08;39.30;;;19.67;;
66523;SDS011;53350;52.210;5.160;2022-12-18T04:52:36;40.78;;;18.58;;
66523;SDS011;53350;52.210;5.160;2022-12-18T04:55:02;39.90;;;18.73;;
66523;SDS011;53350;52.210;5.160;2022-12-18T04:57:29;40.28;;;18.13;;
66523;SDS011;53350;52.210;5.160;2022-12-18T04:59:55;37.22;;;17.33;;
66523;SDS011;53350;52.210;5.160;2022-12-18T05:02:22;38.80;;;18.45;;
66523;SDS011;53350;52.210;5.160;2022-12-18T05:04:48;35.05;;;18.08;;
66523;SDS011;53350;52.210;5.160;2022-12-18T05:07:14;33.38;;;17.30;;
66523;SDS011;53350;52.210;5.160;2022-12-18T05:09:42;34.13;;;15.70;;
66523;SDS011;53350;52.210;5.160;2022-12-18T05:12:08;36.78;;;17.35;;
66523;SDS011;53350;52.210;5.160;2022-12-18T05:14:35;38.70;;;17.23;;
66523;SDS011;53350;52.210;5.160;2022-12-18T05:17:01;32.90;;;15.75;;
66523;SDS011;53350;52.210;5.160;2022-12-18T05:19:28;34.38;;;16.10;;
66523;SDS011;53350;52.210;5.160;2022-12-18T05:21:54;36.78;;;16.30;;
66523;SDS011;53350;52.210;5.160;2022-12-18T05:24:20;30.70;;;14.38;;
66523;SDS011;53350;52.210;5.160;2022-12-18T05:26:48;29.17;;;15.20;;
66523;SDS011;53350;52.210;5.160;2022-12-18T05:29:14;29.80;;;14.88;;
66523;SDS011;53350;52.210;5.160;2022-12-18T05:31:41;38.15;;;16.20;;
66523;SDS011;53350;52.210;5.160;2022-12-18T05:34:07;31.30;;;14.98;;
66523;SDS011;53350;52.210;5.160;2022-12-18T05:36:34;37.58;;;14.90;;
66523;SDS011;53350;52.210;5.160;2022-12-18T05:39:00;29.63;;;13.65;;
66523;SDS011;53350;52.210;5.160;2022-12-18T05:41:27;27.30;;;12.45;;
66523;SDS011;53350;52.210;5.160;2022-12-18T05:43:55;30.63;;;13.88;;
66523;SDS011;53350;52.210;5.160;2022-12-18T05:46:21;28.42;;;14.77;;
66523;SDS011;53350;52.210;5.160;2022-12-18T05:48:47;26.23;;;13.13;;
66523;SDS011;53350;52.210;5.160;2022-12-18T05:51:16;29.38;;;14.35;;
66523;SDS011;53350;52.210;5.160;2022-12-18T05:53:44;25.52;;;12.93;;
66523;SDS011;53350;52.210;5.160;2022-12-18T05:56:12;28.77;;;13.82;;
66523;SDS011;53350;52.210;5.160;2022-12-18T05:58:40;29.05;;;13.63;;
66523;SDS011;53350;52.210;5.160;2022-12-18T06:01:09;29.95;;;13.88;;
66523;SDS011;53350;52.210;5.160;2022-12-18T06:03:37;25.67;;;12.95;;
66523;SDS011;53350;52.210;5.160;2022-12-18T06:06:11;28.92;;;12.50;;
66523;SDS011;53350;52.210;5.160;2022-12-18T06:08:38;28.92;;;13.40;;
66523;SDS011;53350;52.210;5.160;2022-12-18T06:11:05;26.90;;;13.52;;
66523;SDS011;53350;52.210;5.160;2022-12-18T06:13:31;25.60;;;12.07;;
66523;SDS011;53350;52.210;5.160;2022-12-18T06:15:59;28.08;;;11.82;;
66523;SDS011;53350;52.210;5.160;2022-12-18T06:18:29;26.65;;;13.07;;
66523;SDS011;53350;52.210;5.160;2022-12-18T06:20:55;27.73;;;13.00;;
66523;SDS011;53350;52.210;5.160;2022-12-18T06:23:23;24.98;;;11.80;;
66523;SDS011;53350;52.210;5.160;2022-12-18T06:25:49;22.98;;;12.00;;
66523;SDS011;53350;52.210;5.160;2022-12-18T06:28:16;24.40;;;11.82;;
66523;SDS011;53350;52.210;5.160;2022-12-18T06:30:43;23.98;;;11.85;;
66523;SDS011;53350;52.210;5.160;2022-12-18T06:33:09;28.30;;;12.65;;
66523;SDS011;53350;52.210;5.160;2022-12-18T06:35:37;23.70;;;11.30;;
66523;SDS011;53350;52.210;5.160;2022-12-18T06:38:04;26.92;;;12.52;;
66523;SDS011;53350;52.210;5.160;2022-12-18T06:40:30;27.13;;;12.23;;
66523;SDS011;53350;52.210;5.160;2022-12-18T06:42:57;22.10;;;11.23;;
66523;SDS011;53350;52.210;5.160;2022-12-18T06:45:23;25.83;;;12.05;;
66523;SDS011;53350;52.210;5.160;2022-12-18T06:47:50;25.90;;;11.57;;
66523;SDS011;53350;52.210;5.160;2022-12-18T06:50:16;23.65;;;10.98;;
66523;SDS011;53350;52.210;5.160;2022-12-18T06:52:44;23.40;;;11.50;;
66523;SDS011;53350;52.210;5.160;2022-12-18T06:55:10;21.45;;;10.52;;
66523;SDS011;53350;52.210;5.160;2022-12-18T06:57:37;24.27;;;9.75;;
66523;SDS011;53350;52.210;5.160;2022-12-18T07:00:05;19.30;;;9.27;;
66523;SDS011;53350;52.210;5.160;2022-12-18T07:02:32;24.35;;;10.35;;
66523;SDS011;53350;52.210;5.160;2022-12-18T07:04:59;18.88;;;9.68;;
66523;SDS011;53350;52.210;5.160;2022-12-18T07:07:26;21.30;;;10.38;;
66523;SDS011;53350;52.210;5.160;2022-12-18T07:09:54;16.60;;;8.38;;
66523;SDS011;53350;52.210;5.160;2022-12-18T07:12:20;18.33;;;9.65;;
66523;SDS011;53350;52.210;5.160;2022-12-18T07:14:46;20.85;;;10.23;;
66523;SDS011;53350;52.210;5.160;2022-12-18T07:17:13;21.95;;;10.45;;
66523;SDS011;53350;52.210;5.160;2022-12-18T07:19:39;13.15;;;6.95;;
66523;SDS011;53350;52.210;5.160;2022-12-18T07:22:05;19.50;;;10.18;;
66523;SDS011;53350;52.210;5.160;2022-12-18T07:24:32;19.95;;;9.95;;
66523;SDS011;53350;52.210;5.160;2022-12-18T07:27:00;23.25;;;11.07;;
66523;SDS011;53350;52.210;5.160;2022-12-18T07:29:26;21.38;;;10.57;;
66523;SDS011;53350;52.210;5.160;2022-12-18T07:31:53;21.40;;;10.68;;
66523;SDS011;53350;52.210;5.160;2022-12-18T07:34:19;25.05;;;10.68;;
66523;SDS011;53350;52.210;5.160;2022-12-18T07:36:46;21.50;;;11.05;;
66523;SDS011;53350;52.210;5.160;2022-12-18T07:39:12;19.63;;;9.85;;
66523;SDS011;53350;52.210;5.160;2022-12-18T07:41:39;19.15;;;9.63;;
66523;SDS011;53350;52.210;5.160;2022-12-18T07:44:12;22.17;;;10.52;;
66523;SDS011;53350;52.210;5.160;2022-12-18T07:46:38;25.85;;;10.68;;
66523;SDS011;53350;52.210;5.160;2022-12-18T07:49:05;21.08;;;10.13;;
66523;SDS011;53350;52.210;5.160;2022-12-18T07:51:31;15.52;;;7.32;;
66523;SDS011;53350;52.210;5.160;2022-12-18T07:53:58;15.18;;;6.93;;
66523;SDS011;53350;52.210;5.160;2022-12-18T07:56:24;26.10;;;11.07;;
66523;SDS011;53350;52.210;5.160;2022-12-18T07:58:50;24.38;;;11.75;;
66523;SDS011;53350;52.210;5.160;2022-12-18T08:01:18;20.60;;;10.35;;
66523;SDS011;53350;52.210;5.160;2022-12-18T08:03:44;18.23;;;9.65;;
66523;SDS011;53350;52.210;5.160;2022-12-18T08:06:11;20.05;;;10.07;;
66523;SDS011;53350;52.210;5.160;2022-12-18T08:08:37;21.73;;;9.32;;
66523;SDS011;53350;52.210;5.160;2022-12-18T08:11:05;22.02;;;10.68;;
66523;SDS011;53350;52.210;5.160;2022-12-18T08:13:31;15.20;;;8.10;;
66523;SDS011;53350;52.210;5.160;2022-12-18T08:15:58;18.88;;;9.45;;
66523;SDS011;53350;52.210;5.160;2022-12-18T08:18:29;22.10;;;10.40;;
66523;SDS011;53350;52.210;5.160;2022-12-18T08:21:06;21.92;;;10.45;;
66523;SDS011;53350;52.210;5.160;2022-12-18T08:23:34;18.95;;;9.35;;
66523;SDS011;53350;52.210;5.160;2022-12-18T08:26:00;17.08;;;9.07;;
66523;SDS011;53350;52.210;5.160;2022-12-18T08:28:26;17.42;;;8.80;;
66523;SDS011;53350;52.210;5.160;2022-12-18T08:30:53;21.02;;;9.82;;
66523;SDS011;53350;52.210;5.160;2022-12-18T08:33:19;16.50;;;8.93;;
66523;SDS011;53350;52.210;5.160;2022-12-18T08:35:47;23.98;;;9.70;;
66523;SDS011;53350;52.210;5.160;2022-12-18T08:38:13;20.65;;;10.40;;
66523;SDS011;53350;52.210;5.160;2022-12-18T08:40:40;21.77;;;10.07;;
66523;SDS011;53350;52.210;5.160;2022-12-18T08:43:07;20.75;;;9.63;;
66523;SDS011;53350;52.210;5.160;2022-12-18T08:45:53;19.73;;;9.23;;
66523;SDS011;53350;52.210;5.160;2022-12-18T08:48:20;19.75;;;9.82;;
66523;SDS011;53350;52.210;5.160;2022-12-18T08:50:54;18.05;;;10.18;;
66523;SDS011;53350;52.210;5.160;2022-12-18T08:53:21;19.48;;;10.00;;
66523;SDS011;53350;52.210;5.160;2022-12-18T08:55:51;17.27;;;9.30;;
66523;SDS011;53350;52.210;5.160;2022-12-18T08:58:17;17.75;;;8.73;;
66523;SDS011;53350;52.210;5.160;2022-12-18T09:00:44;18.42;;;10.52;;
66523;SDS011;53350;52.210;5.160;2022-12-18T09:03:11;19.42;;;9.82;;
66523;SDS011;53350;52.210;5.160;2022-12-18T09:05:38;17.27;;;8.60;;
66523;SDS011;53350;52.210;5.160;2022-12-18T09:08:06;19.63;;;9.70;;
66523;SDS011;53350;52.210;5.160;2022-12-18T09:10:32;20.65;;;10.00;;
66523;SDS011;53350;52.210;5.160;2022-12-18T09:12:59;19.35;;;9.65;;
66523;SDS011;53350;52.210;5.160;2022-12-18T09:15:26;22.35;;;10.20;;
66523;SDS011;53350;52.210;5.160;2022-12-18T09:17:52;19.60;;;9.40;;
66523;SDS011;53350;52.210;5.160;2022-12-18T09:20:18;21.75;;;9.52;;
66523;SDS011;53350;52.210;5.160;2022-12-18T09:22:45;20.75;;;9.65;;
66523;SDS011;53350;52.210;5.160;2022-12-18T09:25:13;17.67;;;8.98;;
66523;SDS011;53350;52.210;5.160;2022-12-18T09:27:39;21.73;;;9.77;;
66523;SDS011;53350;52.210;5.160;2022-12-18T09:30:06;18.88;;;9.27;;
66523;SDS011;53350;52.210;5.160;2022-12-18T09:32:33;20.80;;;10.15;;
66523;SDS011;53350;52.210;5.160;2022-12-18T09:35:00;20.38;;;9.35;;
66523;SDS011;53350;52.210;5.160;2022-12-18T09:37:26;19.45;;;9.10;;
66523;SDS011;53350;52.210;5.160;2022-12-18T09:39:53;20.40;;;10.32;;
66523;SDS011;53350;52.210;5.160;2022-12-18T09:42:21;19.70;;;10.35;;
66523;SDS011;53350;52.210;5.160;2022-12-18T09:47:16;17.40;;;8.88;;
66523;SDS011;53350;52.210;5.160;2022-12-18T09:49:46;16.05;;;8.23;;
66523;SDS011;53350;52.210;5.160;2022-12-18T09:52:17;17.90;;;8.90;;
66523;SDS011;53350;52.210;5.160;2022-12-18T09:54:48;20.55;;;10.00;;
66523;SDS011;53350;52.210;5.160;2022-12-18T09:57:21;17.10;;;8.85;;
66523;SDS011;53350;52.210;5.160;2022-12-18T09:59:51;19.70;;;10.02;;
66523;SDS011;53350;52.210;5.160;2022-12-18T10:02:21;13.65;;;6.75;;
66523;SDS011;53350;52.210;5.160;2022-12-18T10:04:52;11.20;;;5.53;;
66523;SDS011;53350;52.210;5.160;2022-12-18T10:07:35;17.13;;;7.88;;
66523;SDS011;53350;52.210;5.160;2022-12-18T10:10:13;16.85;;;9.85;;
66523;SDS011;53350;52.210;5.160;2022-12-18T10:12:48;18.33;;;9.23;;
66523;SDS011;53350;52.210;5.160;2022-12-18T10:15:22;28.00;;;14.85;;
66523;SDS011;53350;52.210;5.160;2022-12-18T10:17:55;20.33;;;13.65;;
66523;SDS011;53350;52.210;5.160;2022-12-18T10:20:29;19.67;;;9.82;;
66523;SDS011;53350;52.210;5.160;2022-12-18T10:23:02;18.13;;;8.82;;
66523;SDS011;53350;52.210;5.160;2022-12-18T10:25:37;25.23;;;13.60;;
66523;SDS011;53350;52.210;5.160;2022-12-18T10:28:14;21.13;;;10.85;;
66523;SDS011;53350;52.210;5.160;2022-12-18T10:30:44;18.98;;;10.65;;
66523;SDS011;53350;52.210;5.160;2022-12-18T10:33:11;22.15;;;12.10;;
66523;SDS011;53350;52.210;5.160;2022-12-18T10:35:42;20.35;;;11.18;;
66523;SDS011;53350;52.210;5.160;2022-12-18T10:38:20;20.83;;;11.32;;
66523;SDS011;53350;52.210;5.160;2022-12-18T10:40:49;21.30;;;11.20;;
66523;SDS011;53350;52.210;5.160;2022-12-18T10:43:21;21.80;;;10.18;;
66523;SDS011;53350;52.210;5.160;2022-12-18T10:45:58;20.75;;;10.70;;
66523;SDS011;53350;52.210;5.160;2022-12-18T10:48:27;17.60;;;9.43;;
66523;SDS011;53350;52.210;5.160;2022-12-18T10:53:24;17.42;;;8.73;;
66523;SDS011;53350;52.210;5.160;2022-12-18T10:55:53;16.10;;;8.43;;
66523;SDS011;53350;52.210;5.160;2022-12-18T11:01:01;17.30;;;7.18;;
66523;SDS011;53350;52.210;5.160;2022-12-18T11:03:31;21.45;;;12.00;;
66523;SDS011;53350;52.210;5.160;2022-12-18T11:06:02;19.63;;;10.23;;
66523;SDS011;53350;52.210;5.160;2022-12-18T11:08:30;19.80;;;11.50;;
66523;SDS011;53350;52.210;5.160;2022-12-18T11:10:56;15.95;;;8.98;;
66523;SDS011;53350;52.210;5.160;2022-12-18T11:13:25;17.33;;;9.73;;
66523;SDS011;53350;52.210;5.160;2022-12-18T11:15:53;19.33;;;11.50;;
66523;SDS011;53350;52.210;5.160;2022-12-18T11:18:22;19.95;;;10.82;;
66523;SDS011;53350;52.210;5.160;2022-12-18T11:20:53;27.95;;;18.17;;
66523;SDS011;53350;52.210;5.160;2022-12-18T11:23:22;34.65;;;19.55;;
66523;SDS011;53350;52.210;5.160;2022-12-18T11:25:50;22.70;;;14.10;;
66523;SDS011;53350;52.210;5.160;2022-12-18T11:31:15;17.25;;;10.25;;
66523;SDS011;53350;52.210;5.160;2022-12-18T11:33:45;18.95;;;9.07;;
66523;SDS011;53350;52.210;5.160;2022-12-18T11:36:16;18.90;;;9.45;;
66523;SDS011;53350;52.210;5.160;2022-12-18T11:38:44;19.20;;;10.10;;
66523;SDS011;53350;52.210;5.160;2022-12-18T11:43:50;19.85;;;10.48;;
66523;SDS011;53350;52.210;5.160;2022-12-18T11:46:23;19.27;;;9.30;;
66523;SDS011;53350;52.210;5.160;2022-12-18T11:48:56;16.00;;;7.95;;
66523;SDS011;53350;52.210;5.160;2022-12-18T11:51:30;19.02;;;11.05;;
66523;SDS011;53350;52.210;5.160;2022-12-18T11:54:01;16.52;;;8.20;;
66523;SDS011;53350;52.210;5.160;2022-12-18T11:56:35;15.30;;;8.98;;
66523;SDS011;53350;52.210;5.160;2022-12-18T11:59:08;17.83;;;7.40;;
66523;SDS011;53350;52.210;5.160;2022-12-18T12:01:46;17.15;;;8.95;;
66523;SDS011;53350;52.210;5.160;2022-12-18T12:04:28;16.30;;;9.13;;
66523;SDS011;53350;52.210;5.160;2022-12-18T12:07:12;16.48;;;9.15;;
66523;SDS011;53350;52.210;5.160;2022-12-18T12:09:48;19.88;;;7.93;;
66523;SDS011;53350;52.210;5.160;2022-12-18T12:12:30;19.55;;;8.63;;
66523;SDS011;53350;52.210;5.160;2022-12-18T12:15:13;20.52;;;10.45;;
66523;SDS011;53350;52.210;5.160;2022-12-18T12:20:20;22.02;;;9.13;;
66523;SDS011;53350;52.210;5.160;2022-12-18T12:22:52;16.85;;;8.70;;
66523;SDS011;53350;52.210;5.160;2022-12-18T12:25:28;14.95;;;8.18;;
66523;SDS011;53350;52.210;5.160;2022-12-18T12:28:09;18.48;;;9.50;;
66523;SDS011;53350;52.210;5.160;2022-12-18T12:30:49;17.27;;;8.70;;
66523;SDS011;53350;52.210;5.160;2022-12-18T12:33:25;15.98;;;8.02;;
66523;SDS011;53350;52.210;5.160;2022-12-18T12:36:01;17.45;;;8.68;;
66523;SDS011;53350;52.210;5.160;2022-12-18T12:38:35;17.92;;;9.05;;
66523;SDS011;53350;52.210;5.160;2022-12-18T12:41:08;16.45;;;9.10;;
66523;SDS011;53350;52.210;5.160;2022-12-18T12:43:59;17.90;;;8.55;;
66523;SDS011;53350;52.210;5.160;2022-12-18T12:46:31;16.52;;;7.70;;
66523;SDS011;53350;52.210;5.160;2022-12-18T12:49:03;18.33;;;9.65;;
66523;SDS011;53350;52.210;5.160;2022-12-18T12:51:36;17.15;;;9.18;;
66523;SDS011;53350;52.210;5.160;2022-12-18T12:54:05;18.65;;;9.27;;
66523;SDS011;53350;52.210;5.160;2022-12-18T12:56:39;18.73;;;9.73;;
66523;SDS011;53350;52.210;5.160;2022-12-18T12:59:13;17.63;;;8.55;;
66523;SDS011;53350;52.210;5.160;2022-12-18T13:01:49;15.85;;;7.78;;
66523;SDS011;53350;52.210;5.160;2022-12-18T13:04:25;19.45;;;9.30;;
66523;SDS011;53350;52.210;5.160;2022-12-18T13:06:58;15.32;;;8.55;;
66523;SDS011;53350;52.210;5.160;2022-12-18T13:09:29;14.98;;;8.63;;
66523;SDS011;53350;52.210;5.160;2022-12-18T13:11:57;16.35;;;8.55;;
66523;SDS011;53350;52.210;5.160;2022-12-18T13:14:51;15.98;;;7.93;;
66523;SDS011;53350;52.210;5.160;2022-12-18T13:17:28;15.85;;;8.43;;
66523;SDS011;53350;52.210;5.160;2022-12-18T13:20:03;17.88;;;9.65;;
66523;SDS011;53350;52.210;5.160;2022-12-18T13:22:34;17.67;;;8.82;;
66523;SDS011;53350;52.210;5.160;2022-12-18T13:25:01;17.73;;;8.45;;
66523;SDS011;53350;52.210;5.160;2022-12-18T13:36:23;16.40;;;9.10;;
66523;SDS011;53350;52.210;5.160;2022-12-18T13:41:50;16.67;;;9.10;;
66523;SDS011;53350;52.210;5.160;2022-12-18T13:44:26;16.13;;;8.60;;
66523;SDS011;53350;52.210;5.160;2022-12-18T13:49:25;14.93;;;7.45;;
66523;SDS011;53350;52.210;5.160;2022-12-18T13:51:57;15.90;;;9.05;;
66523;SDS011;53350;52.210;5.160;2022-12-18T13:54:25;15.73;;;8.75;;
66523;SDS011;53350;52.210;5.160;2022-12-18T13:56:56;17.77;;;9.23;;
66523;SDS011;53350;52.210;5.160;2022-12-18T13:59:23;17.10;;;9.32;;
66523;SDS011;53350;52.210;5.160;2022-12-18T14:01:52;16.70;;;8.40;;
66523;SDS011;53350;52.210;5.160;2022-12-18T14:04:21;16.38;;;8.85;;
66523;SDS011;53350;52.210;5.160;2022-12-18T14:06:50;18.98;;;9.77;;
66523;SDS011;53350;52.210;5.160;2022-12-18T14:09:21;19.92;;;9.57;;
66523;SDS011;53350;52.210;5.160;2022-12-18T14:11:51;16.90;;;8.35;;
66523;SDS011;53350;52.210;5.160;2022-12-18T14:14:39;16.95;;;8.05;;
66523;SDS011;53350;52.210;5.160;2022-12-18T14:17:08;17.13;;;8.75;;
66523;SDS011;53350;52.210;5.160;2022-12-18T14:19:36;15.45;;;7.47;;
66523;SDS011;53350;52.210;5.160;2022-12-18T14:22:02;17.13;;;9.60;;
66523;SDS011;53350;52.210;5.160;2022-12-18T14:24:30;17.15;;;8.98;;
66523;SDS011;53350;52.210;5.160;2022-12-18T14:26:56;9.73;;;5.20;;
66523;SDS011;53350;52.210;5.160;2022-12-18T14:29:39;16.27;;;7.18;;
66523;SDS011;53350;52.210;5.160;2022-12-18T14:32:10;16.23;;;8.70;;
66523;SDS011;53350;52.210;5.160;2022-12-18T14:34:39;19.60;;;9.55;;
66523;SDS011;53350;52.210;5.160;2022-12-18T14:37:05;17.38;;;9.50;;
66523;SDS011;53350;52.210;5.160;2022-12-18T14:39:36;16.02;;;9.02;;
66523;SDS011;53350;52.210;5.160;2022-12-18T14:42:03;19.88;;;10.35;;
66523;SDS011;53350;52.210;5.160;2022-12-18T14:44:29;18.17;;;9.55;;
66523;SDS011;53350;52.210;5.160;2022-12-18T14:46:56;14.20;;;7.80;;
66523;SDS011;53350;52.210;5.160;2022-12-18T14:49:23;16.88;;;8.95;;
66523;SDS011;53350;52.210;5.160;2022-12-18T14:51:53;17.63;;;9.02;;
66523;SDS011;53350;52.210;5.160;2022-12-18T14:54:20;17.80;;;9.93;;
66523;SDS011;53350;52.210;5.160;2022-12-18T14:56:51;16.10;;;8.90;;
66523;SDS011;53350;52.210;5.160;2022-12-18T14:59:23;17.33;;;8.65;;
66523;SDS011;53350;52.210;5.160;2022-12-18T15:01:56;17.85;;;8.65;;
66523;SDS011;53350;52.210;5.160;2022-12-18T15:04:26;18.20;;;9.13;;
66523;SDS011;53350;52.210;5.160;2022-12-18T15:09:37;23.77;;;11.73;;
66523;SDS011;53350;52.210;5.160;2022-12-18T15:12:16;26.45;;;10.63;;
66523;SDS011;53350;52.210;5.160;2022-12-18T15:14:50;27.13;;;14.32;;
66523;SDS011;53350;52.210;5.160;2022-12-18T15:17:17;29.77;;;14.65;;